Flag for Australia

Past Weather in 41°03'11.0"S, 145°54'46.2"E, Australia — Yesterday and Last 2 Weeks

Currently: 48 °F. Clear. (Weather station: Launceston Airport, Australia). See more current weather

Past Weather in 41°03'11.0"S, 145°54'46.2"E — Graph

°F

41°03'11.0"S, 145°54'46.2"E Temperature Yesterday

Maximum temperature yesterday: 54 °F (at 12:30 pm)
Minimum temperature yesterday: 41 °F (at 5:00 am)
Average temperature yesterday: 47 °F

High & Low Weather Summary for the Past Weeks

 TemperatureHumidityPressure
High63 °F (May 15, 1:30 pm)100% (May 10, 7:30 pm)30.60 "Hg (May 10, 7:30 pm)
Low30 °F (May 18, 5:30 am)36% (May 17, 1:00 pm)29.95 "Hg (May 13, 1:30 pm)
Average49 °F81%30.27 "Hg
* Reported May 10 4:00 pm — May 25 4:30 pm, 41°03'11.0"S, 145°54'46.2"E. Weather by CustomWeather, © 2024

Note: Actual official high and low records may vary slightly from our data, if they occured in-between our weather recording intervals... More about our weather records

41°03'11.0"S, 145°54'46.2"E Weather History for the Previous 24 Hours

Scroll right to see more
 ConditionsComfort  
Time TempWeatherWind HumidityBarometerVisibility
4:30 pm
Sat, May 25
52 °FSunny.7 mph62%30.36 "HgN/A
4:00 pm54 °FSunny.6 mph58%30.36 "HgN/A
3:30 pm55 °FSunny.5 mph55%30.36 "HgN/A
3:00 pm55 °FSunny.5 mph55%30.36 "HgN/A
2:30 pm55 °FSunny.3 mph55%30.36 "HgN/A
2:00 pm55 °FSunny.No wind55%30.36 "HgN/A
1:30 pm55 °FSunny.3 mph59%30.36 "HgN/A
1:00 pm54 °FSunny.5 mph63%30.36 "HgN/A
12:30 pm52 °FSunny.3 mph67%30.39 "HgN/A
12:00 pm52 °FSunny.5 mph72%30.39 "HgN/A
11:30 am50 °FSunny.5 mph71%30.42 "HgN/A
11:00 am46 °FSunny.6 mph82%30.42 "HgN/A
10:30 am45 °FSunny.6 mph87%30.42 "HgN/A
10:00 am43 °FSunny.5 mph93%30.45 "HgN/A
9:30 am43 °FSunny.6 mph93%30.45 "HgN/A
9:00 am41 °FSunny.7 mph93%30.45 "HgN/A
8:30 am41 °FSunny.8 mph93%30.42 "HgN/A
8:00 am39 °FSunny.7 mph93%30.42 "HgN/A
7:30 am39 °FSunny.5 mph93%30.42 "HgN/A
7:00 am39 °FClear.6 mph100%30.42 "HgN/A
6:30 am39 °FClear.7 mph100%30.42 "HgN/A
6:00 am41 °FClear.7 mph93%30.39 "HgN/A
5:30 am41 °FClear.8 mph93%30.39 "HgN/A
5:00 am39 °FClear.5 mph93%30.39 "HgN/A
4:30 am43 °FPassing clouds.No wind93%30.39 "HgN/A
4:00 am43 °FOvercast.3 mph93%30.39 "HgN/A
3:30 am43 °FOvercast.6 mph93%30.42 "HgN/A
3:00 am45 °FOvercast.3 mph87%30.42 "HgN/A
2:30 am45 °FOvercast.No wind87%30.42 "HgN/A
2:00 am45 °FOvercast.5 mph93%30.42 "HgN/A
1:30 am45 °FOvercast.6 mph87%30.42 "HgN/A
1:00 am45 °FOvercast.6 mph93%30.42 "HgN/A
12:30 am45 °FOvercast.5 mph87%30.42 "HgN/A
12:00 am45 °FOvercast.6 mph87%30.42 "HgN/A
11:30 pm
Fri, May 24
46 °FOvercast.5 mph87%30.42 "HgN/A
11:00 pm46 °FOvercast.5 mph87%30.42 "HgN/A
10:30 pm46 °FOvercast.7 mph87%30.42 "HgN/A
10:00 pm46 °FOvercast.6 mph87%30.42 "HgN/A
9:00 pm46 °FOvercast.6 mph87%30.42 "HgN/A
8:30 pm46 °FPassing clouds.6 mph87%30.42 "HgN/A
8:00 pm48 °FOvercast.8 mph82%30.42 "HgN/A
7:30 pm48 °FOvercast.6 mph82%30.42 "HgN/A
7:00 pm48 °FOvercast.8 mph82%30.39 "HgN/A
6:30 pm48 °FOvercast.8 mph82%30.39 "HgN/A
6:00 pm50 °FOvercast.9 mph76%30.39 "HgN/A
5:30 pm50 °FOvercast.12 mph76%30.39 "HgN/A
5:00 pm50 °FOvercast.9 mph76%30.39 "HgN/A
Weather by CustomWeather, © 2024

See weather overview